Time;durP1;ratioP1;P1;durP2;ratioP2;P2;SDS_P1;SDS_P2;PMS_P1;PMS_P2;Temp;Humidity;BMP_temperature;BMP_pressure;BME280_temperature;BME280_humidity;BME280_pressure;Samples;Min_cycle;Max_cycle;Signal;HPM_P1;HPM_P2
2022/05/21 11:05:32;;;;;;;1.10;0.32;;;25.90;39.00;;;;;;2325780;53;22964;-78
2022/05/21 11:08:47;;;;;;;0.82;0.40;;;25.90;38.80;;;;;;2289298;54;21089;-76
2022/05/21 11:12:52;;;;;;;1.20;0.40;;;25.90;38.60;;;;;;2293727;54;21118;-76
2022/05/21 11:15:43;;;;;;;1.05;0.32;;;26.00;38.90;;;;;;2285917;54;21367;-76
2022/05/21 11:18:37;;;;;;;0.83;0.40;;;26.10;38.70;;;;;;2291895;53;20973;-76
2022/05/21 11:21:38;;;;;;;0.95;0.40;;;26.30;38.70;;;;;;2282681;54;21085;-75
2022/05/21 11:24:13;;;;;;;1.42;0.35;;;26.30;38.40;;;;;;2260780;54;20994;-75
2022/05/21 11:26:59;;;;;;;1.12;0.25;;;26.40;38.40;;;;;;2347241;54;20905;-76
2022/05/21 11:29:42;;;;;;;1.35;0.40;;;26.40;38.10;;;;;;2303098;54;20970;-76
2022/05/21 11:38:58;;;;;;;1.37;0.50;;;26.70;38.50;;;;;;2343247;54;20941;-77
2022/05/21 11:41:56;;;;;;;1.65;0.35;;;26.80;38.20;;;;;;2477582;53;20991;-76
2022/05/21 11:48:10;;;;;;;0.98;0.40;;;26.90;37.90;;;;;;2307902;55;20944;-74
2022/05/21 11:50:37;;;;;;;0.93;0.37;;;27.00;37.40;;;;;;2312196;55;20981;-76
2022/05/21 11:53:27;;;;;;;0.60;0.30;;;27.00;37.60;;;;;;2407555;53;20993;-74
2022/05/21 11:55:59;;;;;;;0.77;0.30;;;27.00;37.30;;;;;;2310628;55;21513;-75
2022/05/21 11:58:44;;;;;;;0.98;0.30;;;27.00;37.30;;;;;;2309374;55;20971;-77
2022/05/21 12:01:15;;;;;;;1.73;0.40;;;27.00;37.20;;;;;;2309121;55;20949;-75
2022/05/21 12:03:52;;;;;;;0.75;0.32;;;27.10;37.10;;;;;;2463868;53;21527;-74
2022/05/21 12:06:30;;;;;;;1.67;0.55;;;27.10;36.40;;;;;;2346122;54;21521;-75
2022/05/21 12:09:29;;;;;;;2.03;0.70;;;27.10;36.20;;;;;;2309278;55;20967;-76
2022/05/21 12:14:50;;;;;;;0.82;0.35;;;27.10;36.20;;;;;;2310420;55;20961;-76
2022/05/21 12:21:07;;;;;;;0.55;0.17;;;27.10;36.60;;;;;;2306977;55;21286;-75
2022/05/21 12:25:08;;;;;;;1.10;0.35;;;27.10;36.90;;;;;;2307896;55;20936;-75
2022/05/21 12:27:47;;;;;;;1.12;0.30;;;27.20;36.90;;;;;;2311102;55;20933;-74
2022/05/21 12:30:27;;;;;;;1.20;0.37;;;27.20;36.60;;;;;;2307764;55;21460;-75
2022/05/21 12:32:53;;;;;;;0.82;0.40;;;27.30;36.50;;;;;;2541838;54;21311;-74
2022/05/21 12:36:06;;;;;;;1.52;0.40;;;27.30;36.40;;;;;;2311178;55;20974;-73
2022/05/21 12:38:35;;;;;;;1.00;0.40;;;27.30;36.20;;;;;;2310045;55;20956;-74
2022/05/21 12:41:18;;;;;;;2.05;0.70;;;27.40;36.70;;;;;;2335105;54;21634;-74
2022/05/21 12:43:49;;;;;;;1.40;0.50;;;27.40;36.10;;;;;;2353006;54;20950;-74
2022/05/21 12:46:26;;;;;;;1.48;0.50;;;27.40;35.90;;;;;;2308560;55;21017;-75
2022/05/21 12:48:56;;;;;;;1.00;0.30;;;27.50;36.80;;;;;;2307815;55;21586;-74
2022/05/21 12:51:39;;;;;;;1.67;0.40;;;27.50;36.20;;;;;;2308240;55;20933;-74
2022/05/21 12:54:17;;;;;;;1.75;0.40;;;27.50;36.10;;;;;;2311418;55;20902;-75
2022/05/21 12:56:46;;;;;;;1.27;0.47;;;27.50;36.20;;;;;;2311772;55;21058;-74
2022/05/21 12:59:23;;;;;;;1.23;0.50;;;27.60;36.20;;;;;;2307365;55;21017;-74
2022/05/21 13:03:22;;;;;;;1.77;0.62;;;27.60;35.90;;;;;;2310828;55;21730;-76
2022/05/21 13:05:58;;;;;;;1.27;0.52;;;27.70;35.90;;;;;;2448823;53;20941;-74
2022/05/21 13:08:25;;;;;;;2.40;0.80;;;27.70;35.40;;;;;;2311086;55;20996;-73
2022/05/21 13:11:25;;;;;;;2.95;0.70;;;27.70;35.40;;;;;;2306820;55;21544;-74
2022/05/21 13:13:57;;;;;;;3.20;0.82;;;27.70;35.20;;;;;;2312854;55;21448;-74
2022/05/21 13:16:24;;;;;;;1.83;0.55;;;27.70;35.20;;;;;;2307268;55;21060;-73
2022/05/21 13:20:42;;;;;;;1.62;0.57;;;27.70;35.10;;;;;;2307795;55;20956;-77
2022/05/21 13:25:57;;;;;;;2.80;0.93;;;27.80;35.00;;;;;;2318413;53;21453;-75
2022/05/21 13:28:24;;;;;;;4.18;1.90;;;27.80;35.90;;;;;;2310799;55;21851;-75
2022/05/21 13:30:52;;;;;;;3.03;0.93;;;27.90;35.70;;;;;;2376725;53;21021;-75
2022/05/21 13:35:53;;;;;;;1.45;0.60;;;27.90;35.30;;;;;;2310666;55;21450;-75
2022/05/21 13:38:28;;;;;;;1.33;0.57;;;28.00;35.30;;;;;;2307028;55;20924;-75
2022/05/21 13:40:55;;;;;;;1.77;0.80;;;28.00;35.10;;;;;;2306936;55;21039;-75
2022/05/21 13:43:22;;;;;;;1.85;0.62;;;28.00;34.60;;;;;;2310956;55;21059;-75
2022/05/21 13:46:07;;;;;;;1.42;0.50;;;28.00;34.30;;;;;;2305366;55;20959;-75
2022/05/21 13:48:42;;;;;;;1.12;0.35;;;28.00;34.20;;;;;;2306425;55;21000;-76
2022/05/21 13:51:12;;;;;;;0.95;0.32;;;28.00;34.40;;;;;;2311342;55;21521;-76
2022/05/21 13:53:38;;;;;;;0.90;0.40;;;28.00;34.80;;;;;;2306497;55;21038;-74
2022/05/21 13:56:06;;;;;;;0.73;0.30;;;28.00;34.70;;;;;;2423288;53;20974;-75
2022/05/21 13:58:37;;;;;;;1.40;0.52;;;28.00;34.80;;;;;;2309443;55;20941;-76
2022/05/21 14:01:05;;;;;;;1.75;0.75;;;28.10;34.70;;;;;;2306425;55;21010;-75
2022/05/21 14:03:46;;;;;;;1.80;0.70;;;28.10;34.70;;;;;;2371959;53;20929;-76
2022/05/21 14:06:19;;;;;;;1.85;0.80;;;28.00;34.70;;;;;;2355001;53;21021;-75
2022/05/21 14:08:57;;;;;;;1.67;0.57;;;28.00;34.00;;;;;;2311306;55;20973;-75
2022/05/21 14:11:23;;;;;;;2.00;0.70;;;28.00;33.60;;;;;;2306815;55;21512;-75
2022/05/21 14:14:00;;;;;;;0.62;0.40;;;27.90;34.00;;;;;;2308806;55;21000;-76
2022/05/21 14:16:31;;;;;;;0.98;0.43;;;27.90;34.20;;;;;;2501309;53;21889;-76
2022/05/21 14:19:43;;;;;;;1.65;0.70;;;27.80;34.20;;;;;;2311568;55;20930;-76
2022/05/21 14:22:16;;;;;;;1.55;0.60;;;27.80;33.90;;;;;;2310908;55;20938;-76
2022/05/21 14:24:50;;;;;;;1.12;0.45;;;27.80;34.10;;;;;;2468570;54;21403;-76
2022/05/21 14:27:27;;;;;;;0.80;0.35;;;27.80;34.20;;;;;;2307669;54;21001;-75
2022/05/21 14:29:56;;;;;;;1.85;0.50;;;27.80;34.20;;;;;;2435929;53;21646;-75
2022/05/21 14:32:27;;;;;;;0.98;0.40;;;27.70;34.20;;;;;;2318176;55;20953;-76
2022/05/21 14:41:44;;;;;;;1.25;0.40;;;27.70;34.30;;;;;;2315016;54;21597;-77
2022/05/21 14:44:15;;;;;;;0.95;0.40;;;27.80;34.70;;;;;;2334356;54;20963;-75
2022/05/21 14:49:27;;;;;;;2.25;0.57;;;27.70;34.00;;;;;;2323258;54;20983;-78
2022/05/21 14:54:39;;;;;;;1.62;0.40;;;27.50;34.20;;;;;;2341623;55;20935;-76
2022/05/21 14:57:05;;;;;;;1.40;0.40;;;27.50;34.20;;;;;;2337192;54;21330;-77
2022/05/21 14:59:33;;;;;;;2.80;0.50;;;27.50;34.40;;;;;;2453863;54;21015;-73
2022/05/21 15:01:59;;;;;;;2.60;0.45;;;27.40;34.60;;;;;;2317707;54;20916;-73
2022/05/21 15:04:26;;;;;;;0.80;0.30;;;27.40;34.60;;;;;;2341928;54;21019;-75
2022/05/21 15:06:52;;;;;;;0.55;0.30;;;27.40;34.70;;;;;;2341613;55;20955;-73
2022/05/21 15:09:18;;;;;;;1.10;0.47;;;27.40;34.60;;;;;;2547638;53;20947;-75
2022/05/21 15:11:47;;;;;;;1.12;0.32;;;27.40;34.70;;;;;;2382177;54;21738;-75
2022/05/21 15:14:16;;;;;;;2.05;0.65;;;27.40;34.90;;;;;;2317338;54;20947;-75
2022/05/21 15:16:46;;;;;;;1.50;0.60;;;27.40;35.00;;;;;;2387206;54;21509;-75
2022/05/21 15:19:13;;;;;;;0.98;0.30;;;27.50;35.20;;;;;;2309127;54;21002;-73
2022/05/21 15:21:46;;;;;;;1.23;0.40;;;27.50;35.20;;;;;;2316432;55;20931;-74
2022/05/21 15:24:13;;;;;;;1.50;0.32;;;27.50;35.00;;;;;;2306104;54;21934;-74
2022/05/21 15:26:39;;;;;;;1.35;0.37;;;27.50;35.00;;;;;;2315267;54;21811;-73
2022/05/21 15:29:06;;;;;;;1.55;0.40;;;27.50;35.10;;;;;;2317763;54;20992;-75
2022/05/21 15:31:35;;;;;;;1.40;0.60;;;27.50;34.90;;;;;;2342872;54;21401;-75
2022/05/21 15:34:02;;;;;;;0.88;0.50;;;27.50;34.80;;;;;;2326517;54;20953;-76
2022/05/21 15:36:29;;;;;;;1.30;0.40;;;27.40;34.70;;;;;;2314098;55;20963;-75
2022/05/21 15:38:55;;;;;;;1.95;0.70;;;27.40;34.70;;;;;;2314463;55;20984;-76
2022/05/21 15:41:26;;;;;;;1.08;0.37;;;27.40;34.60;;;;;;2458974;53;20976;-76
2022/05/21 15:43:54;;;;;;;1.60;0.70;;;27.40;34.70;;;;;;2372063;54;21019;-75
2022/05/21 15:46:25;;;;;;;1.15;0.50;;;27.30;34.70;;;;;;2315152;55;20972;-75
2022/05/21 15:48:52;;;;;;;1.17;0.40;;;27.30;34.70;;;;;;2324580;54;20960;-77
2022/05/21 15:51:22;;;;;;;1.00;0.43;;;27.30;34.80;;;;;;2307552;54;20990;-76
2022/05/21 15:53:49;;;;;;;1.70;0.30;;;27.30;34.80;;;;;;2461666;54;20942;-76
2022/05/21 15:56:17;;;;;;;1.27;0.50;;;27.30;35.00;;;;;;2299716;54;20974;-76
2022/05/21 15:58:44;;;;;;;1.98;0.55;;;27.30;35.00;;;;;;2315019;55;21782;-76
2022/05/21 16:01:10;;;;;;;1.48;0.47;;;27.20;34.90;;;;;;2315200;54;20945;-75
2022/05/21 16:03:39;;;;;;;1.10;0.55;;;27.20;34.90;;;;;;2318086;54;20945;-74
2022/05/21 16:06:05;;;;;;;2.20;0.95;;;27.20;35.10;;;;;;2416252;54;20974;-76
2022/05/21 16:08:33;;;;;;;2.30;0.90;;;27.20;35.20;;;;;;2271910;55;21050;-75
2022/05/21 16:10:59;;;;;;;2.22;1.00;;;27.20;35.20;;;;;;2358378;54;21765;-77
2022/05/21 16:13:26;;;;;;;3.65;1.60;;;27.20;35.30;;;;;;2481473;54;20943;-76
2022/05/21 16:15:55;;;;;;;2.58;1.10;;;27.30;35.40;;;;;;2290207;55;21321;-77
2022/05/21 16:18:21;;;;;;;2.55;1.00;;;27.30;35.40;;;;;;2484521;54;21505;-76
2022/05/21 16:20:50;;;;;;;1.85;0.68;;;27.30;35.60;;;;;;2288701;55;21026;-76
2022/05/21 16:23:17;;;;;;;2.12;0.77;;;27.40;35.50;;;;;;2280285;55;20978;-76
2022/05/21 16:25:44;;;;;;;1.83;0.70;;;27.40;35.50;;;;;;2306137;55;21017;-76
2022/05/21 16:28:13;;;;;;;1.40;0.60;;;27.50;35.30;;;;;;2308313;55;21758;-76
2022/05/21 16:30:41;;;;;;;1.90;0.98;;;27.50;34.90;;;;;;2450853;54;21024;-77
2022/05/21 16:33:07;;;;;;;3.55;1.50;;;27.60;34.80;;;;;;2492255;53;21589;-76
2022/05/21 16:35:34;;;;;;;3.15;1.55;;;27.60;34.80;;;;;;2306239;54;21002;-75
2022/05/21 16:38:00;;;;;;;2.28;0.90;;;27.60;34.80;;;;;;2300403;54;20969;-76
2022/05/21 16:40:28;;;;;;;1.77;0.70;;;27.70;34.70;;;;;;2299297;55;21070;-76
2022/05/21 16:42:54;;;;;;;4.60;0.80;;;27.70;34.60;;;;;;2303458;55;20945;-76
2022/05/21 16:45:25;;;;;;;1.83;0.70;;;27.70;34.40;;;;;;2317050;55;21079;-75
2022/05/21 16:47:53;;;;;;;1.87;0.70;;;27.70;34.20;;;;;;2556635;53;20987;-75
2022/05/21 16:50:20;;;;;;;4.55;2.75;;;27.70;34.10;;;;;;2311249;54;25489;-76
2022/05/21 16:52:48;;;;;;;10.80;8.85;;;27.70;33.90;;;;;;2318206;54;21020;-77
2022/05/21 16:55:16;;;;;;;5.62;4.32;;;27.70;34.10;;;;;;2316689;54;20996;-75
2022/05/21 16:57:42;;;;;;;4.47;2.45;;;27.70;34.20;;;;;;2314579;58;21903;-76
2022/05/21 17:00:10;;;;;;;3.72;2.00;;;27.70;34.30;;;;;;2313685;58;21029;-75
2022/05/21 17:02:38;;;;;;;2.62;1.15;;;27.70;34.40;;;;;;2304527;55;21041;-79
2022/05/21 17:05:07;;;;;;;1.98;0.90;;;27.70;34.30;;;;;;2312085;54;20955;-76
2022/05/21 17:07:39;;;;;;;2.45;0.80;;;27.70;34.10;;;;;;2556050;54;20973;-75
2022/05/21 17:10:06;;;;;;;3.08;0.70;;;27.70;33.90;;;;;;2322696;54;20935;-75
2022/05/21 17:12:33;;;;;;;1.98;0.75;;;27.70;33.90;;;;;;2303842;54;21726;-75
2022/05/21 17:14:59;;;;;;;2.22;1.10;;;27.70;33.80;;;;;;2556358;54;21398;-76
2022/05/21 17:17:27;;;;;;;2.65;1.40;;;27.70;33.80;;;;;;2316339;55;20945;-76
2022/05/21 17:19:53;;;;;;;1.90;0.85;;;27.70;33.80;;;;;;2298159;55;21418;-75
2022/05/21 17:22:21;;;;;;;3.12;0.50;;;27.70;33.80;;;;;;2552692;53;21064;-77
2022/05/21 17:24:47;;;;;;;1.83;0.50;;;27.60;33.70;;;;;;2487784;53;21001;-76
2022/05/21 17:33:08;;;;;;;0.73;0.40;;;27.50;33.50;;;;;;2315621;55;20937;-76
2022/05/21 17:35:37;;;;;;;;;;;27.50;33.30;;;;;;2416054;54;20953;-75
2022/05/21 17:38:05;;;;;;;0.75;0.40;;;27.50;33.80;;;;;;2315992;55;20111;-75
2022/05/21 17:40:31;;;;;;;1.48;0.60;;;27.50;33.60;;;;;;2316410;55;21004;-75
2022/05/21 17:43:00;;;;;;;1.10;0.40;;;27.40;33.50;;;;;;2555092;54;20945;-75
2022/05/21 17:45:27;;;;;;;2.03;0.85;;;27.40;33.70;;;;;;2315773;55;20909;-75
2022/05/21 17:47:53;;;;;;;2.10;0.60;;;27.30;33.60;;;;;;2322342;54;21040;-76
2022/05/21 17:50:23;;;;;;;2.08;0.50;;;27.40;33.80;;;;;;2303845;54;20965;-75
2022/05/21 17:52:50;;;;;;;1.10;0.50;;;27.30;33.90;;;;;;2314743;55;21056;-77
2022/05/21 17:55:18;;;;;;;1.58;0.47;;;27.40;34.00;;;;;;2315867;55;20945;-75
2022/05/21 17:57:47;;;;;;;1.17;0.35;;;27.40;34.00;;;;;;2393222;54;20894;-74
2022/05/21 18:00:19;;;;;;;2.15;0.50;;;27.40;34.20;;;;;;2316001;55;20909;-78
2022/05/21 18:02:46;;;;;;;0.75;0.28;;;27.40;34.30;;;;;;2509782;54;21465;-76
2022/05/21 18:05:19;;;;;;;1.50;0.47;;;27.40;34.20;;;;;;2318582;54;20999;-75
2022/05/21 18:07:45;;;;;;;2.10;0.50;;;27.40;33.90;;;;;;2315870;55;20909;-76
2022/05/21 18:10:12;;;;;;;1.30;0.50;;;27.30;33.70;;;;;;2315925;55;21021;-77
2022/05/21 18:12:40;;;;;;;1.67;0.65;;;27.30;33.50;;;;;;2315743;55;20925;-76
2022/05/21 18:15:08;;;;;;;1.87;0.50;;;27.20;33.40;;;;;;2461359;54;20921;-76
2022/05/21 18:20:22;;;;;;;2.08;0.65;;;27.10;33.50;;;;;;2315075;55;21025;-75
2022/05/21 18:22:48;;;;;;;1.55;0.65;;;27.00;33.60;;;;;;2315963;55;20941;-76
2022/05/21 18:25:17;;;;;;;3.53;0.70;;;26.90;33.60;;;;;;2449909;54;20936;-76
2022/05/21 18:27:44;;;;;;;2.60;1.00;;;26.90;33.80;;;;;;2315472;55;21029;-78
2022/05/21 18:30:12;;;;;;;4.90;0.75;;;26.80;33.80;;;;;;2407827;54;21013;-75
2022/05/21 18:32:39;;;;;;;1.60;0.60;;;26.70;33.90;;;;;;2315949;55;20965;-75
2022/05/21 18:35:06;;;;;;;2.62;1.08;;;26.60;33.90;;;;;;2555797;53;21832;-76
2022/05/21 18:37:32;;;;;;;2.75;1.12;;;26.50;34.00;;;;;;2515456;53;21102;-75
2022/05/21 18:39:58;;;;;;;2.67;1.40;;;26.50;34.10;;;;;;2315738;55;21393;-77
2022/05/21 18:42:25;;;;;;;2.67;1.20;;;26.40;34.10;;;;;;2533725;53;21380;-76
2022/05/21 18:44:51;;;;;;;2.65;1.08;;;26.30;34.20;;;;;;2316234;55;21003;-76
2022/05/21 18:47:19;;;;;;;1.65;0.73;;;26.20;34.20;;;;;;2356494;53;20983;-75
2022/05/21 18:49:46;;;;;;;2.15;0.80;;;26.10;34.30;;;;;;2542938;53;21067;-74
2022/05/21 18:52:12;;;;;;;2.03;0.70;;;26.00;34.40;;;;;;2406738;53;20944;-76
2022/05/21 18:54:41;;;;;;;1.12;0.40;;;25.90;34.40;;;;;;2315619;54;20923;-76
2022/05/21 18:57:07;;;;;;;2.00;0.70;;;25.90;34.50;;;;;;2316304;55;20971;-76
2022/05/21 18:59:37;;;;;;;2.37;0.47;;;25.70;34.60;;;;;;2315802;54;21694;-76
2022/05/21 19:02:03;;;;;;;0.98;0.37;;;25.70;34.60;;;;;;2486019;53;21425;-75
2022/05/21 19:04:30;;;;;;;3.00;0.65;;;25.60;34.70;;;;;;2314428;55;20951;-76
2022/05/21 19:06:56;;;;;;;1.00;0.40;;;25.50;34.90;;;;;;2316249;55;21004;-76
2022/05/21 19:09:23;;;;;;;2.03;0.50;;;25.40;34.90;;;;;;2318502;54;20992;-76
2022/05/21 19:11:52;;;;;;;0.62;0.25;;;25.30;34.90;;;;;;2318992;54;20928;-76
2022/05/21 19:14:19;;;;;;;1.30;0.43;;;25.20;35.10;;;;;;2315227;54;20920;-77
2022/05/21 19:16:46;;;;;;;1.17;0.40;;;25.10;35.10;;;;;;2337412;54;20943;-76
2022/05/21 19:19:12;;;;;;;1.37;0.40;;;25.00;35.30;;;;;;2315735;55;20936;-77
2022/05/21 19:21:46;;;;;;;2.28;0.90;;;24.90;35.30;;;;;;2315859;55;21141;-77
2022/05/21 19:24:13;;;;;;;2.90;1.00;;;24.80;35.30;;;;;;2472640;53;20977;-77
2022/05/21 19:26:39;;;;;;;2.75;0.98;;;24.70;35.30;;;;;;2340439;54;20954;-78
2022/05/21 19:29:06;;;;;;;2.50;0.90;;;24.60;35.40;;;;;;2329009;54;21503;-76
2022/05/21 19:31:34;;;;;;;1.83;0.80;;;24.40;35.30;;;;;;2320876;55;21019;-77
2022/05/21 19:34:00;;;;;;;1.67;0.50;;;24.30;35.40;;;;;;2338584;54;20946;-76
2022/05/21 19:36:26;;;;;;;2.28;0.70;;;24.20;35.40;;;;;;2337171;55;20937;-75
2022/05/21 19:38:53;;;;;;;1.73;0.40;;;24.10;35.50;;;;;;2502477;54;20943;-77
2022/05/21 19:41:20;;;;;;;1.30;0.50;;;24.00;35.60;;;;;;2338127;54;21491;-76
2022/05/21 19:43:48;;;;;;;1.40;0.40;;;23.90;35.70;;;;;;2338244;55;21547;-76
2022/05/21 19:46:17;;;;;;;0.77;0.30;;;23.80;35.90;;;;;;2334566;54;21022;-76
2022/05/21 19:48:43;;;;;;;1.33;0.43;;;23.70;35.90;;;;;;2327335;54;21010;-77
2022/05/21 19:51:09;;;;;;;0.93;0.40;;;23.50;35.90;;;;;;2338026;54;20990;-76
2022/05/21 19:53:37;;;;;;;1.12;0.40;;;23.50;36.00;;;;;;2583605;53;21476;-78
2022/05/21 19:56:09;;;;;;;1.17;0.47;;;23.40;36.00;;;;;;2367657;53;20971;-76
2022/05/21 19:58:36;;;;;;;1.50;0.60;;;23.20;36.00;;;;;;2338037;54;21612;-78
2022/05/21 20:01:03;;;;;;;1.05;0.40;;;23.10;36.20;;;;;;2320714;54;21061;-76
2022/05/21 20:03:30;;;;;;;1.30;0.43;;;23.00;36.20;;;;;;2337655;55;20936;-76
2022/05/21 20:05:56;;;;;;;2.30;0.80;;;23.00;36.40;;;;;;2338070;55;20972;-77
2022/05/21 20:08:22;;;;;;;0.45;0.25;;;22.90;36.50;;;;;;2322932;54;20981;-77
2022/05/21 20:10:49;;;;;;;1.30;0.37;;;22.80;36.60;;;;;;2338761;54;21522;-76
2022/05/21 20:13:15;;;;;;;1.08;0.30;;;22.70;36.60;;;;;;2356838;53;21121;-76
2022/05/21 20:15:42;;;;;;;1.75;0.50;;;22.60;36.50;;;;;;2510532;53;21065;-76
2022/05/21 20:18:09;;;;;;;0.73;0.20;;;22.50;36.60;;;;;;2338831;55;21006;-76
2022/05/21 20:20:50;;;;;;;0.85;0.20;;;22.50;36.70;;;;;;2584867;53;20995;-77
2022/05/21 20:23:17;;;;;;;0.95;0.40;;;22.40;36.60;;;;;;2325130;54;20976;-76
2022/05/21 20:25:43;;;;;;;1.00;0.30;;;22.40;36.80;;;;;;2336631;54;21809;-76
2022/05/21 20:28:11;;;;;;;1.15;0.35;;;22.30;36.80;;;;;;2338936;55;20942;-76
2022/05/21 20:30:37;;;;;;;0.55;0.20;;;22.20;36.80;;;;;;2338749;55;20974;-76
2022/05/21 20:33:06;;;;;;;1.80;0.50;;;22.20;36.80;;;;;;2437445;53;21678;-75
2022/05/21 20:35:33;;;;;;;0.55;0.10;;;22.10;36.90;;;;;;2338585;55;20990;-76
2022/05/21 20:38:00;;;;;;;2.03;0.40;;;22.10;36.90;;;;;;2339051;55;20918;-77
2022/05/21 20:40:26;;;;;;;1.83;0.20;;;22.00;37.00;;;;;;2494496;53;20985;-76
2022/05/21 20:42:52;;;;;;;0.82;0.28;;;22.00;37.00;;;;;;2397966;53;21076;-76
2022/05/21 20:45:20;;;;;;;0.95;0.37;;;21.90;37.00;;;;;;2338422;55;21023;-76
2022/05/21 20:50:35;;;;;;;0.95;0.30;;;21.80;37.20;;;;;;2334060;54;21020;-76
2022/05/21 20:53:01;;;;;;;0.47;0.30;;;21.70;37.10;;;;;;2339785;55;21006;-75
2022/05/21 20:55:28;;;;;;;1.83;0.75;;;21.70;37.20;;;;;;2382906;53;20999;-76
2022/05/21 20:57:55;;;;;;;0.75;0.30;;;21.60;37.20;;;;;;2583825;53;21520;-75
2022/05/21 21:00:22;;;;;;;0.88;0.22;;;21.60;37.30;;;;;;2338336;55;20962;-76
2022/05/21 21:02:48;;;;;;;0.55;0.30;;;21.50;37.20;;;;;;2338299;54;21458;-75
2022/05/21 21:05:14;;;;;;;0.85;0.30;;;21.50;37.40;;;;;;2338292;55;20950;-76
2022/05/21 21:07:41;;;;;;;1.00;0.40;;;21.40;37.40;;;;;;2450003;53;21015;-75
2022/05/21 21:10:07;;;;;;;0.75;0.30;;;21.30;37.40;;;;;;2584294;52;20934;-76
2022/05/21 21:12:34;;;;;;;0.82;0.30;;;21.30;37.60;;;;;;2333314;54;21023;-77
2022/05/21 21:15:00;;;;;;;1.35;0.40;;;21.20;37.50;;;;;;2328578;54;20926;-77
2022/05/21 21:17:27;;;;;;;0.55;0.28;;;21.20;37.60;;;;;;2322513;54;21521;-75
2022/05/21 21:19:53;;;;;;;0.73;0.30;;;21.10;37.60;;;;;;2406319;53;20957;-76
2022/05/21 21:22:19;;;;;;;2.80;0.30;;;21.10;37.80;;;;;;2325748;54;20935;-77
2022/05/21 21:24:46;;;;;;;1.62;0.47;;;21.00;37.80;;;;;;2322795;54;20923;-76
2022/05/21 21:27:12;;;;;;;0.52;0.30;;;20.90;37.80;;;;;;2577612;53;20942;-76
2022/05/21 21:29:42;;;;;;;0.43;0.20;;;20.90;38.00;;;;;;2473083;53;21840;-75
2022/05/21 21:32:08;;;;;;;1.10;0.40;;;20.80;38.00;;;;;;2560647;53;20927;-77
2022/05/21 21:34:35;;;;;;;0.88;0.40;;;20.70;38.00;;;;;;2338343;55;20922;-77
2022/05/21 21:37:01;;;;;;;1.40;0.62;;;20.70;38.10;;;;;;2338327;55;21010;-76
2022/05/21 21:39:27;;;;;;;1.17;0.52;;;20.70;38.20;;;;;;2338271;54;21502;-76
2022/05/21 21:41:55;;;;;;;1.35;0.68;;;20.60;38.20;;;;;;2338938;54;20922;-75
2022/05/21 21:44:21;;;;;;;1.35;0.55;;;20.50;38.20;;;;;;2339992;55;21003;-77
2022/05/21 21:46:47;;;;;;;2.97;0.65;;;20.50;38.40;;;;;;2320168;54;21463;-76
2022/05/21 21:49:14;;;;;;;1.73;0.50;;;20.40;38.40;;;;;;2431363;53;20979;-76
2022/05/21 21:51:41;;;;;;;1.00;0.40;;;20.30;38.50;;;;;;2559668;53;20978;-76
2022/05/21 21:54:09;;;;;;;1.25;0.40;;;20.30;38.60;;;;;;2331062;54;21271;-76
2022/05/21 21:56:35;;;;;;;1.10;0.40;;;20.20;38.70;;;;;;2351663;53;20935;-76
2022/05/21 22:01:47;;;;;;;0.80;0.30;;;20.00;38.90;;;;;;2432729;54;20931;-77
2022/05/21 22:04:17;;;;;;;0.70;0.30;;;20.00;39.00;;;;;;2338586;55;21384;-76
2022/05/21 22:06:47;;;;;;;0.90;0.30;;;19.90;39.00;;;;;;2322144;54;21972;-75
2022/05/21 22:09:13;;;;;;;0.75;0.40;;;19.90;39.20;;;;;;2338657;55;20954;-77
2022/05/21 22:11:40;;;;;;;1.35;0.40;;;19.80;39.30;;;;;;2335202;55;21035;-76
2022/05/21 22:14:06;;;;;;;1.10;0.40;;;19.70;39.40;;;;;;2512026;53;20954;-77
2022/05/21 22:16:33;;;;;;;0.90;0.40;;;19.70;39.40;;;;;;2322840;54;20948;-76
2022/05/21 22:18:59;;;;;;;0.68;0.30;;;19.60;39.40;;;;;;2338487;55;21046;-76
2022/05/21 22:21:25;;;;;;;0.73;0.37;;;19.60;39.60;;;;;;2338986;55;20998;-76
2022/05/21 22:23:53;;;;;;;0.30;0.20;;;19.50;39.80;;;;;;2584053;53;21034;-76
2022/05/21 22:26:19;;;;;;;0.95;0.40;;;19.50;39.80;;;;;;2338520;55;20945;-75
2022/05/21 22:28:45;;;;;;;1.60;0.47;;;19.40;39.70;;;;;;2324774;54;20973;-76
2022/05/21 22:31:12;;;;;;;0.73;0.30;;;19.30;39.80;;;;;;2341142;54;20980;-77
2022/05/21 22:33:38;;;;;;;1.40;0.50;;;19.30;39.90;;;;;;2583565;53;20983;-76
2022/05/21 22:36:06;;;;;;;0.77;0.30;;;19.20;39.90;;;;;;2407357;53;20958;-76
2022/05/21 22:38:32;;;;;;;0.75;0.35;;;19.20;40.00;;;;;;2338465;55;21171;-75
2022/05/21 22:40:58;;;;;;;0.93;0.30;;;19.20;40.10;;;;;;2320362;54;21035;-77
2022/05/21 22:43:25;;;;;;;2.50;0.85;;;19.10;40.10;;;;;;2555880;54;20936;-76
2022/05/21 22:45:52;;;;;;;1.45;0.40;;;19.00;40.20;;;;;;2477421;54;20961;-76
2022/05/21 22:48:18;;;;;;;0.88;0.32;;;18.90;40.20;;;;;;2303220;54;21502;-78
2022/05/21 22:50:44;;;;;;;1.30;0.40;;;18.90;40.30;;;;;;2316939;54;21082;-76
2022/05/21 22:53:12;;;;;;;1.17;0.40;;;18.80;40.30;;;;;;2315523;54;20954;-76
2022/05/21 22:55:40;;;;;;;1.83;0.55;;;18.80;40.70;;;;;;2535384;54;20948;-75
2022/05/21 22:58:06;;;;;;;1.90;0.35;;;18.80;40.80;;;;;;2319953;54;20929;-75
2022/05/21 23:00:32;;;;;;;2.20;0.47;;;18.70;40.80;;;;;;2308904;54;21271;-76
2022/05/21 23:02:58;;;;;;;0.80;0.40;;;18.60;40.70;;;;;;2315023;55;20963;-76
2022/05/21 23:05:25;;;;;;;1.20;0.50;;;18.60;40.90;;;;;;2315440;55;20983;-75
2022/05/21 23:07:53;;;;;;;1.27;0.60;;;18.50;41.00;;;;;;2555534;53;21507;-76
2022/05/21 23:10:19;;;;;;;0.88;0.40;;;18.50;41.20;;;;;;2555817;53;20948;-76
2022/05/21 23:12:50;;;;;;;1.10;0.45;;;18.50;41.30;;;;;;2555238;53;20928;-75
2022/05/21 23:18:16;;;;;;;0.62;0.30;;;18.40;41.30;;;;;;2315634;54;20936;-76
2022/05/21 23:20:47;;;;;;;0.73;0.40;;;18.30;41.30;;;;;;2335588;55;20990;-76
2022/05/21 23:23:22;;;;;;;1.40;0.57;;;18.30;41.40;;;;;;2584204;53;20919;-77
2022/05/21 23:25:48;;;;;;;1.30;0.52;;;18.20;41.50;;;;;;2338202;54;20935;-75
2022/05/21 23:28:14;;;;;;;1.60;0.47;;;18.20;41.50;;;;;;2338413;55;21254;-76
2022/05/21 23:30:41;;;;;;;0.70;0.32;;;18.10;41.50;;;;;;2337891;55;20954;-76
2022/05/21 23:33:08;;;;;;;0.85;0.40;;;18.10;41.60;;;;;;2484139;54;20955;-76
2022/05/21 23:35:34;;;;;;;0.75;0.40;;;18.00;41.80;;;;;;2502402;53;20987;-78
2022/05/21 23:38:02;;;;;;;0.82;0.40;;;18.00;41.90;;;;;;2349979;53;21010;-76
2022/05/21 23:40:28;;;;;;;1.20;0.50;;;17.90;41.90;;;;;;2338330;55;21011;-78
2022/05/21 23:42:57;;;;;;;1.52;0.50;;;17.90;42.00;;;;;;2338588;55;20946;-76
2022/05/21 23:45:23;;;;;;;1.37;0.45;;;17.80;42.00;;;;;;2338305;54;21002;-75
2022/05/21 23:47:50;;;;;;;1.50;0.70;;;17.80;42.00;;;;;;2338389;55;20986;-76
2022/05/21 23:50:16;;;;;;;1.73;0.68;;;17.80;42.20;;;;;;2479154;53;21701;-76
2022/05/21 23:52:43;;;;;;;1.08;0.43;;;17.70;42.20;;;;;;2338869;55;20914;-76
2022/05/21 23:55:09;;;;;;;1.67;0.60;;;17.70;42.30;;;;;;2338173;54;21030;-77
2022/05/21 23:57:36;;;;;;;1.48;0.50;;;17.60;42.40;;;;;;2337700;54;21042;-75
